Time;durP1;ratioP1;P1;durP2;ratioP2;P2;SDS_P1;SDS_P2;PMS_P1;PMS_P2;Temp;Humidity;BMP_temperature;BMP_pressure;BME280_temperature;BME280_humidity;BME280_pressure;Samples;Min_cycle;Max_cycle;Signal;HPM_P1;HPM_P2
2023/05/18 00:00:45;;;;;;;2.27;1.60;;;17.50;67.70;;;;;;4957430;28;20445;-67
2023/05/18 00:03:14;;;;;;;1.70;1.10;;;17.40;67.60;;;;;;4945164;28;20491;-66
2023/05/18 00:05:42;;;;;;;3.17;1.60;;;17.50;67.80;;;;;;4943723;28;20949;-65
2023/05/18 00:08:12;;;;;;;1.77;1.30;;;17.40;67.60;;;;;;4951963;28;20959;-67
2023/05/18 00:10:41;;;;;;;3.00;1.60;;;17.40;67.70;;;;;;4946634;28;20448;-67
2023/05/18 00:13:09;;;;;;;3.03;1.30;;;17.40;67.70;;;;;;4939237;28;20931;-64
2023/05/18 00:15:38;;;;;;;1.87;1.20;;;17.40;67.60;;;;;;4946329;28;20448;-67
2023/05/18 00:18:07;;;;;;;2.50;1.57;;;17.40;67.70;;;;;;4944739;28;20451;-66
2023/05/18 00:20:36;;;;;;;2.00;1.40;;;17.40;67.70;;;;;;4944401;28;20448;-68
2023/05/18 00:23:05;;;;;;;2.63;1.53;;;17.40;67.70;;;;;;4935876;28;20472;-66
2023/05/18 00:25:35;;;;;;;4.80;1.23;;;17.40;67.80;;;;;;4961424;28;20447;-67
2023/05/18 00:28:03;;;;;;;2.60;1.20;;;17.40;67.70;;;;;;4946036;28;20546;-65
2023/05/18 00:30:32;;;;;;;2.60;1.10;;;17.40;67.80;;;;;;4950646;28;20447;-66
2023/05/18 00:33:00;;;;;;;2.43;1.60;;;17.40;67.80;;;;;;4949048;28;20984;-67
2023/05/18 00:35:28;;;;;;;3.07;1.80;;;17.40;67.80;;;;;;4939269;28;20838;-67
2023/05/18 00:38:00;;;;;;;2.83;1.40;;;17.40;67.80;;;;;;4947697;28;20472;-68
2023/05/18 00:40:29;;;;;;;2.17;1.60;;;17.40;67.80;;;;;;4956232;28;20463;-64
2023/05/18 00:42:59;;;;;;;1.70;1.07;;;17.40;67.80;;;;;;4942546;28;20948;-66
2023/05/18 00:45:28;;;;;;;2.33;1.27;;;17.40;67.70;;;;;;4951190;28;20498;-67
2023/05/18 00:47:56;;;;;;;2.90;1.50;;;17.40;67.80;;;;;;4952381;28;20498;-67
2023/05/18 00:50:25;;;;;;;3.00;1.50;;;17.40;67.80;;;;;;4949058;28;20440;-66
2023/05/18 00:52:54;;;;;;;2.40;0.93;;;17.40;67.70;;;;;;4948970;28;20506;-68
2023/05/18 00:55:22;;;;;;;4.17;1.50;;;17.40;67.70;;;;;;4957332;28;20519;-67
2023/05/18 00:57:55;;;;;;;2.13;1.30;;;17.40;67.80;;;;;;4945705;28;20816;-68
2023/05/18 01:00:25;;;;;;;3.73;1.30;;;17.40;67.70;;;;;;4955168;28;20494;-66
2023/05/18 01:02:54;;;;;;;6.63;2.17;;;17.40;67.80;;;;;;4956929;28;20476;-66
2023/05/18 01:05:23;;;;;;;6.03;1.47;;;17.40;67.80;;;;;;4944634;28;20456;-67
2023/05/18 01:07:52;;;;;;;2.60;1.20;;;17.30;67.70;;;;;;4948045;28;21127;-65
2023/05/18 01:10:20;;;;;;;2.20;1.20;;;17.30;67.80;;;;;;4950602;28;20463;-67
2023/05/18 01:12:56;;;;;;;3.07;1.40;;;17.40;67.80;;;;;;4947866;28;20451;-67
2023/05/18 01:15:32;;;;;;;2.90;1.57;;;17.30;67.80;;;;;;4954483;28;20698;-66
2023/05/18 01:18:13;;;;;;;2.03;1.10;;;17.30;67.70;;;;;;4958770;28;20454;-66
2023/05/18 01:20:47;;;;;;;1.70;1.10;;;17.30;67.80;;;;;;4950538;28;20454;-67
2023/05/18 01:23:51;;;;;;;4.80;1.60;;;17.30;67.80;;;;;;4953023;28;20482;-66
2023/05/18 01:26:36;;;;;;;2.90;1.53;;;17.30;67.80;;;;;;4940820;28;20447;-67
2023/05/18 01:29:10;;;;;;;2.90;1.63;;;17.30;67.80;;;;;;4954433;28;20479;-67
2023/05/18 01:31:38;;;;;;;3.17;1.43;;;17.30;67.80;;;;;;4953256;28;20441;-66
2023/05/18 01:34:07;;;;;;;4.07;1.93;;;17.30;67.80;;;;;;4952689;28;20475;-68
2023/05/18 01:36:36;;;;;;;2.10;1.60;;;17.30;67.70;;;;;;4948257;28;20461;-67
2023/05/18 01:39:04;;;;;;;2.80;1.50;;;17.30;67.80;;;;;;4955937;28;20518;-67
2023/05/18 01:41:38;;;;;;;2.73;1.63;;;17.30;67.90;;;;;;4947408;28;20483;-67
2023/05/18 01:44:16;;;;;;;4.43;1.27;;;17.20;67.70;;;;;;4950744;28;21013;-65
2023/05/18 01:46:53;;;;;;;1.83;1.30;;;17.30;67.80;;;;;;4947905;28;20835;-68
2023/05/18 01:49:29;;;;;;;2.10;1.50;;;17.30;67.80;;;;;;4943639;28;20460;-66
2023/05/18 01:52:02;;;;;;;3.30;1.20;;;17.30;67.90;;;;;;4947159;28;20468;-68
2023/05/18 01:54:32;;;;;;;2.03;1.10;;;17.30;67.90;;;;;;4956579;28;20467;-67
2023/05/18 01:57:03;;;;;;;3.33;1.43;;;17.20;67.80;;;;;;4953526;28;20455;-67
2023/05/18 01:59:34;;;;;;;2.37;1.50;;;17.30;67.80;;;;;;4952083;28;20990;-67
2023/05/18 02:02:04;;;;;;;2.40;1.57;;;17.20;67.80;;;;;;4943342;28;20869;-67
2023/05/18 02:04:34;;;;;;;2.80;1.60;;;17.20;67.80;;;;;;4951698;28;20490;-67
2023/05/18 02:07:02;;;;;;;2.00;1.40;;;17.20;67.70;;;;;;4950756;28;21038;-67
2023/05/18 02:09:31;;;;;;;1.97;1.60;;;17.20;67.80;;;;;;4949376;28;20527;-67
2023/05/18 02:12:01;;;;;;;1.77;1.27;;;17.20;67.80;;;;;;4962703;28;20435;-67
2023/05/18 02:14:30;;;;;;;2.83;1.70;;;17.20;67.80;;;;;;4951182;28;20491;-66
2023/05/18 02:16:59;;;;;;;2.80;1.70;;;17.20;67.80;;;;;;4967711;28;20442;-67
2023/05/18 02:19:29;;;;;;;2.10;1.50;;;17.20;67.80;;;;;;4947177;28;20487;-66
2023/05/18 02:21:58;;;;;;;4.50;1.53;;;17.20;67.80;;;;;;4956527;28;20424;-67
2023/05/18 02:24:26;;;;;;;3.07;1.60;;;17.20;67.80;;;;;;4951464;28;20472;-67
2023/05/18 02:26:55;;;;;;;2.00;1.53;;;17.20;67.80;;;;;;4966241;28;20436;-67
2023/05/18 02:29:25;;;;;;;2.37;1.40;;;17.20;67.80;;;;;;4951591;28;20578;-68
2023/05/18 02:31:53;;;;;;;2.40;1.43;;;17.20;67.80;;;;;;4958666;28;20455;-67
2023/05/18 02:34:23;;;;;;;2.83;1.90;;;17.20;67.90;;;;;;4955001;28;20481;-67
2023/05/18 02:36:52;;;;;;;3.00;1.60;;;17.20;67.80;;;;;;4966692;28;21047;-67
2023/05/18 02:39:21;;;;;;;3.10;2.07;;;17.20;69.20;;;;;;4952186;28;20464;-66
2023/05/18 02:41:49;;;;;;;2.70;1.97;;;17.10;67.80;;;;;;4951450;28;20451;-65
2023/05/18 02:44:17;;;;;;;3.77;1.40;;;17.20;67.80;;;;;;4939953;28;20476;-66
2023/05/18 02:46:47;;;;;;;3.07;1.97;;;17.20;67.90;;;;;;4960163;28;20436;-69
2023/05/18 02:49:16;;;;;;;2.73;1.57;;;17.10;67.80;;;;;;4944634;28;20588;-68
2023/05/18 02:51:44;;;;;;;3.37;1.60;;;17.10;67.80;;;;;;4972857;28;20468;-66
2023/05/18 02:54:13;;;;;;;2.47;1.30;;;17.10;67.80;;;;;;4949323;28;20495;-67
2023/05/18 02:56:43;;;;;;;2.80;1.90;;;17.10;67.80;;;;;;4950206;28;20437;-68
2023/05/18 02:59:24;;;;;;;4.63;2.00;;;17.10;67.80;;;;;;4948716;28;20476;-68
2023/05/18 03:01:54;;;;;;;2.10;1.80;;;17.10;67.90;;;;;;4966904;28;20829;-65
2023/05/18 03:04:24;;;;;;;2.67;1.90;;;17.10;67.90;;;;;;4942202;28;20576;-68
2023/05/18 03:06:56;;;;;;;2.30;1.50;;;17.10;67.90;;;;;;4949128;28;20440;-65
2023/05/18 03:09:25;;;;;;;2.07;1.40;;;17.10;67.90;;;;;;4945602;28;20498;-68
2023/05/18 03:11:56;;;;;;;2.57;1.93;;;17.10;67.90;;;;;;4958222;28;21145;-67
2023/05/18 03:14:25;;;;;;;5.00;1.90;;;17.10;67.90;;;;;;4941018;28;20898;-67
2023/05/18 03:16:57;;;;;;;2.60;1.53;;;17.10;67.90;;;;;;4948443;28;20502;-68
2023/05/18 03:19:27;;;;;;;3.50;1.73;;;17.00;67.80;;;;;;4941617;28;20481;-68
2023/05/18 03:21:56;;;;;;;4.20;2.00;;;17.00;67.90;;;;;;4962860;28;20464;-67
2023/05/18 03:24:28;;;;;;;3.60;1.70;;;17.10;68.00;;;;;;4940956;28;20826;-66
2023/05/18 03:26:59;;;;;;;4.03;2.20;;;17.10;68.00;;;;;;4948907;28;20459;-66
2023/05/18 03:29:29;;;;;;;5.40;2.10;;;17.00;68.00;;;;;;4942539;28;20483;-65
2023/05/18 03:32:03;;;;;;;3.30;1.77;;;17.00;68.00;;;;;;4956272;28;20446;-67
2023/05/18 03:34:32;;;;;;;3.00;1.80;;;17.00;67.90;;;;;;4941892;28;20485;-66
2023/05/18 03:37:01;;;;;;;2.87;2.23;;;17.00;67.90;;;;;;4962332;28;20629;-67
2023/05/18 03:39:31;;;;;;;5.10;2.00;;;17.00;68.00;;;;;;4946845;28;21186;-66
2023/05/18 03:42:00;;;;;;;3.10;2.20;;;17.00;68.00;;;;;;4945149;28;20448;-68
2023/05/18 03:44:30;;;;;;;2.63;1.70;;;17.00;68.10;;;;;;4945543;28;20487;-67
2023/05/18 03:46:59;;;;;;;3.63;2.47;;;17.00;68.10;;;;;;4947092;28;20492;-66
2023/05/18 03:49:29;;;;;;;2.10;1.67;;;17.00;68.10;;;;;;4950490;28;20472;-67
2023/05/18 03:51:58;;;;;;;2.30;1.63;;;17.00;68.10;;;;;;4970031;28;20507;-67
2023/05/18 03:54:26;;;;;;;2.33;1.60;;;17.00;68.10;;;;;;4947202;28;20570;-67
2023/05/18 03:56:55;;;;;;;3.50;2.17;;;17.00;68.20;;;;;;4947229;28;20428;-66
2023/05/18 03:59:23;;;;;;;2.60;1.70;;;17.00;68.20;;;;;;4968199;28;20544;-67
2023/05/18 04:01:52;;;;;;;3.13;2.03;;;17.00;68.40;;;;;;4948405;28;20440;-67
2023/05/18 04:04:26;;;;;;;3.27;1.40;;;17.00;68.20;;;;;;4953502;28;20845;-67
2023/05/18 04:06:56;;;;;;;4.30;2.30;;;17.00;68.20;;;;;;4961728;28;20436;-66
2023/05/18 04:09:26;;;;;;;3.93;1.70;;;16.90;68.10;;;;;;4947521;28;21046;-67
2023/05/18 04:11:55;;;;;;;3.87;2.00;;;16.90;68.20;;;;;;4947879;28;20507;-67
2023/05/18 04:14:26;;;;;;;2.30;1.30;;;16.90;68.10;;;;;;4942887;28;20479;-67
2023/05/18 04:16:57;;;;;;;3.40;1.90;;;16.90;68.10;;;;;;4954185;28;20436;-67
2023/05/18 04:19:25;;;;;;;2.77;1.77;;;16.90;68.00;;;;;;4965953;28;20480;-67
2023/05/18 04:21:54;;;;;;;2.80;2.17;;;16.90;68.10;;;;;;4937494;28;20783;-67
2023/05/18 04:24:25;;;;;;;3.47;2.30;;;16.90;68.10;;;;;;4946738;28;20471;-67
2023/05/18 04:26:54;;;;;;;2.40;1.87;;;16.90;68.20;;;;;;4948151;28;20448;-67
2023/05/18 04:29:23;;;;;;;2.50;1.70;;;16.90;68.20;;;;;;4939643;28;20849;-66
2023/05/18 04:31:52;;;;;;;3.10;2.00;;;16.90;68.30;;;;;;4948203;28;20480;-67
2023/05/18 04:34:23;;;;;;;2.03;1.20;;;16.90;68.30;;;;;;4948707;28;21248;-68
2023/05/18 04:36:54;;;;;;;6.90;2.20;;;16.80;68.10;;;;;;4968681;28;20439;-66
2023/05/18 04:39:26;;;;;;;2.63;1.80;;;16.90;68.30;;;;;;4954874;28;20475;-67
2023/05/18 04:41:57;;;;;;;2.70;1.73;;;16.90;68.30;;;;;;4946092;28;20949;-67
2023/05/18 04:44:28;;;;;;;2.70;2.00;;;16.90;68.20;;;;;;4940183;28;20997;-66
2023/05/18 04:46:59;;;;;;;3.40;1.63;;;16.90;68.20;;;;;;4947632;28;20480;-66
2023/05/18 04:49:30;;;;;;;6.20;2.10;;;16.90;68.20;;;;;;4941085;28;20559;-67
2023/05/18 04:51:59;;;;;;;4.27;2.10;;;16.90;68.30;;;;;;4951515;28;20487;-65
2023/05/18 04:54:30;;;;;;;2.87;1.93;;;16.80;68.20;;;;;;4951923;28;20472;-65
2023/05/18 04:57:02;;;;;;;2.57;1.43;;;16.80;68.20;;;;;;4946869;28;20522;-65
2023/05/18 04:59:30;;;;;;;3.37;2.07;;;16.80;68.30;;;;;;4954261;28;21018;-67
2023/05/18 05:02:01;;;;;;;2.90;1.90;;;16.80;68.20;;;;;;4949251;28;20868;-65
2023/05/18 05:04:30;;;;;;;2.83;1.80;;;16.80;68.20;;;;;;4941794;28;20633;-67
2023/05/18 05:06:58;;;;;;;3.00;1.70;;;16.80;68.30;;;;;;4946976;28;20884;-67
2023/05/18 05:09:27;;;;;;;3.90;1.93;;;16.80;68.20;;;;;;4946201;28;20470;-67
2023/05/18 05:11:56;;;;;;;2.63;1.60;;;16.80;68.30;;;;;;4955497;28;20983;-67
2023/05/18 05:14:25;;;;;;;3.30;1.90;;;16.80;68.20;;;;;;4939843;28;20468;-66
2023/05/18 05:16:54;;;;;;;2.90;1.87;;;16.80;68.10;;;;;;4954221;28;20454;-65
2023/05/18 05:19:23;;;;;;;2.90;1.80;;;16.80;68.10;;;;;;4940216;28;20488;-67
2023/05/18 05:21:52;;;;;;;2.47;1.80;;;16.90;68.10;;;;;;4954071;28;20448;-67
2023/05/18 05:24:20;;;;;;;3.80;2.43;;;16.90;68.00;;;;;;4944723;28;21084;-66
2023/05/18 05:26:48;;;;;;;2.20;1.47;;;16.80;67.80;;;;;;4952879;28;20514;-67
2023/05/18 05:29:20;;;;;;;1.87;1.47;;;16.90;68.00;;;;;;4945622;28;20511;-68
2023/05/18 05:31:48;;;;;;;3.03;1.90;;;16.90;67.80;;;;;;4956962;28;20555;-66
2023/05/18 05:34:17;;;;;;;3.80;2.13;;;16.90;67.80;;;;;;4944907;28;20547;-66
2023/05/18 05:36:46;;;;;;;2.33;1.50;;;16.90;67.40;;;;;;4963519;28;20499;-68
2023/05/18 05:39:14;;;;;;;3.93;1.70;;;16.90;67.50;;;;;;4952826;28;20846;-65
2023/05/18 05:41:42;;;;;;;3.43;2.03;;;17.00;67.80;;;;;;4970155;28;20439;-68
2023/05/18 05:44:12;;;;;;;3.60;1.77;;;16.90;67.60;;;;;;4939797;28;20506;-66
2023/05/18 05:46:42;;;;;;;3.10;1.83;;;17.00;67.70;;;;;;4977433;28;20456;-66
2023/05/18 05:49:11;;;;;;;4.00;1.33;;;17.00;67.70;;;;;;4944305;28;20488;-66
2023/05/18 05:51:40;;;;;;;2.67;1.63;;;17.00;67.70;;;;;;4950154;28;20502;-66
2023/05/18 05:54:08;;;;;;;2.80;1.57;;;16.90;67.50;;;;;;4953219;28;20542;-68
2023/05/18 05:56:38;;;;;;;2.20;1.50;;;16.90;67.70;;;;;;4952232;28;20448;-66
2023/05/18 05:59:07;;;;;;;2.30;1.50;;;16.90;67.80;;;;;;4949847;28;20475;-68
2023/05/18 06:01:35;;;;;;;2.67;1.67;;;16.90;67.80;;;;;;4948781;28;20538;-68
2023/05/18 06:04:09;;;;;;;3.43;2.10;;;16.90;67.80;;;;;;4955534;28;20471;-68
2023/05/18 06:06:38;;;;;;;2.93;1.77;;;16.90;67.90;;;;;;4956090;28;20862;-67
2023/05/18 06:09:07;;;;;;;2.53;2.10;;;16.90;67.90;;;;;;4944816;28;20476;-67
2023/05/18 06:11:36;;;;;;;2.23;1.53;;;16.90;67.90;;;;;;4949019;28;20460;-66
2023/05/18 06:14:05;;;;;;;2.17;1.40;;;16.90;67.90;;;;;;4945971;28;20583;-67
2023/05/18 06:16:34;;;;;;;3.13;1.57;;;16.90;67.90;;;;;;4956445;28;20940;-66
2023/05/18 06:19:02;;;;;;;2.40;1.50;;;16.90;67.90;;;;;;4957899;28;20460;-66
2023/05/18 06:21:32;;;;;;;2.77;1.57;;;16.90;67.80;;;;;;4948937;29;20515;-67
2023/05/18 06:24:03;;;;;;;2.80;1.53;;;16.80;67.80;;;;;;4950263;28;20490;-66
2023/05/18 06:26:41;;;;;;;2.67;1.50;;;16.80;67.40;;;;;;4948591;29;20948;-67
2023/05/18 06:29:29;;;;;;;2.30;1.57;;;16.80;67.60;;;;;;4950659;28;20510;-65
2023/05/18 06:32:01;;;;;;;2.77;2.10;;;16.80;67.60;;;;;;4949282;28;20472;-66
2023/05/18 06:34:39;;;;;;;3.90;1.80;;;16.80;69.10;;;;;;4947128;28;20488;-67
2023/05/18 06:37:10;;;;;;;3.30;1.90;;;16.90;67.50;;;;;;4972422;28;20461;-65
2023/05/18 06:39:39;;;;;;;3.23;1.53;;;16.80;66.30;;;;;;4948496;28;20464;-68
2023/05/18 06:42:08;;;;;;;3.10;2.00;;;16.80;67.20;;;;;;4951479;28;20531;-66
2023/05/18 06:44:44;;;;;;;2.47;1.80;;;16.80;66.60;;;;;;4940265;28;20787;-67
2023/05/18 06:47:17;;;;;;;3.40;1.80;;;16.90;67.20;;;;;;4954214;28;20452;-66
2023/05/18 06:49:47;;;;;;;3.20;2.20;;;16.90;67.20;;;;;;4939674;28;20515;-66
2023/05/18 06:52:17;;;;;;;2.57;1.50;;;16.80;65.60;;;;;;4952389;28;20506;-67
2023/05/18 06:54:46;;;;;;;2.20;1.50;;;16.90;65.90;;;;;;4947800;28;20583;-68
2023/05/18 06:57:14;;;;;;;4.60;2.10;;;16.90;66.60;;;;;;4946428;28;20558;-67
2023/05/18 06:59:43;;;;;;;2.43;2.00;;;16.90;66.60;;;;;;4947366;28;20482;-67
2023/05/18 07:02:12;;;;;;;5.17;2.50;;;16.90;65.40;;;;;;4947835;28;20882;-67
2023/05/18 07:04:41;;;;;;;3.70;1.70;;;16.90;64.60;;;;;;4947144;28;21224;-66
2023/05/18 07:07:10;;;;;;;3.20;1.83;;;16.90;65.40;;;;;;4962782;28;20850;-66
2023/05/18 07:09:42;;;;;;;5.07;2.73;;;16.90;65.10;;;;;;4941954;28;20468;-66
2023/05/18 07:12:10;;;;;;;5.17;2.50;;;16.90;64.80;;;;;;4950430;28;20474;-67
2023/05/18 07:14:39;;;;;;;3.53;2.43;;;17.00;64.30;;;;;;4940919;28;20489;-67
2023/05/18 07:17:07;;;;;;;5.33;2.30;;;17.00;64.40;;;;;;4946482;28;20472;-66
2023/05/18 07:19:35;;;;;;;3.40;2.27;;;16.90;64.00;;;;;;4945144;28;20482;-67
2023/05/18 07:22:06;;;;;;;3.30;1.77;;;17.00;64.60;;;;;;4958171;28;20444;-67
2023/05/18 07:24:34;;;;;;;2.93;1.83;;;17.00;64.30;;;;;;4947578;28;20471;-69
2023/05/18 07:27:05;;;;;;;2.23;1.97;;;17.00;66.80;;;;;;4946827;28;20438;-67
2023/05/18 07:29:34;;;;;;;4.93;2.60;;;17.10;63.20;;;;;;4947667;28;20494;-67
2023/05/18 07:32:03;;;;;;;3.23;1.73;;;17.10;63.30;;;;;;4958688;28;21091;-66
2023/05/18 07:34:31;;;;;;;2.47;2.03;;;17.10;64.70;;;;;;4948729;28;20592;-66
2023/05/18 07:37:00;;;;;;;4.77;1.80;;;17.10;64.20;;;;;;4946342;28;20536;-67
2023/05/18 07:39:28;;;;;;;5.73;2.30;;;17.10;64.30;;;;;;4946233;28;20468;-68
2023/05/18 07:41:57;;;;;;;2.80;2.07;;;17.10;64.70;;;;;;4948047;29;20455;-67
2023/05/18 07:44:27;;;;;;;3.10;2.40;;;17.00;64.80;;;;;;4945345;28;20567;-65
2023/05/18 07:46:55;;;;;;;4.90;2.30;;;17.10;62.70;;;;;;4956113;28;20432;-67
2023/05/18 07:49:24;;;;;;;3.90;2.00;;;17.10;63.20;;;;;;4936855;28;20507;-67
2023/05/18 07:51:53;;;;;;;4.60;2.03;;;17.10;63.30;;;;;;4949726;28;20809;-69
2023/05/18 07:54:22;;;;;;;4.23;2.20;;;17.10;63.90;;;;;;4946443;28;20518;-72
2023/05/18 07:56:50;;;;;;;3.60;2.60;;;17.10;64.20;;;;;;4942985;28;20458;-66
2023/05/18 07:59:18;;;;;;;3.07;2.10;;;17.10;64.00;;;;;;4951388;28;20554;-73
2023/05/18 08:01:48;;;;;;;5.00;2.60;;;17.10;64.20;;;;;;4948152;28;20455;-73
2023/05/18 08:04:17;;;;;;;4.00;1.90;;;17.00;64.30;;;;;;4938004;29;20484;-73
2023/05/18 08:06:45;;;;;;;3.50;2.20;;;17.00;64.50;;;;;;4961098;28;20495;-73
2023/05/18 08:09:14;;;;;;;5.97;2.13;;;17.00;64.60;;;;;;4941402;28;20478;-74
2023/05/18 08:11:43;;;;;;;2.53;1.87;;;17.00;64.80;;;;;;4946605;28;20448;-72
2023/05/18 08:14:12;;;;;;;2.80;1.97;;;17.00;64.80;;;;;;4941320;28;20456;-73
2023/05/18 08:16:40;;;;;;;2.33;1.80;;;17.00;64.70;;;;;;4947017;28;20451;-73
2023/05/18 08:19:10;;;;;;;3.43;1.87;;;17.00;65.00;;;;;;4949238;28;20464;-72
2023/05/18 08:21:39;;;;;;;3.07;1.90;;;17.00;65.10;;;;;;4953593;28;20991;-73
2023/05/18 08:24:09;;;;;;;3.50;1.90;;;17.00;65.20;;;;;;4946226;28;21001;-73
2023/05/18 08:26:38;;;;;;;3.97;2.00;;;17.00;65.20;;;;;;4946933;28;20452;-72
2023/05/18 08:29:08;;;;;;;5.00;2.17;;;17.00;65.10;;;;;;4960606;28;20468;-73
2023/05/18 08:31:37;;;;;;;3.00;2.10;;;17.00;65.20;;;;;;4944029;28;20486;-73
2023/05/18 08:34:07;;;;;;;4.60;1.73;;;17.00;65.20;;;;;;4943392;28;20523;-72
2023/05/18 08:36:37;;;;;;;5.60;1.90;;;17.00;65.40;;;;;;4957898;28;20535;-72
2023/05/18 08:39:05;;;;;;;3.07;1.70;;;17.00;65.50;;;;;;4946257;28;20482;-73
2023/05/18 08:41:40;;;;;;;3.20;1.87;;;17.00;65.40;;;;;;4947957;29;20531;-73
2023/05/18 08:44:14;;;;;;;2.90;1.70;;;17.00;65.50;;;;;;4939357;28;20488;-73
2023/05/18 08:46:47;;;;;;;2.30;1.63;;;17.00;65.50;;;;;;4965469;28;20450;-72
2023/05/18 08:49:17;;;;;;;2.37;1.67;;;17.00;65.60;;;;;;4938375;28;20989;-73
2023/05/18 08:51:55;;;;;;;3.83;2.37;;;17.00;65.80;;;;;;4951558;28;20459;-71
2023/05/18 08:54:24;;;;;;;3.27;1.53;;;17.00;65.70;;;;;;4937828;28;20838;-73
2023/05/18 08:56:53;;;;;;;2.60;1.77;;;17.00;65.80;;;;;;4952872;28;20459;-71
2023/05/18 08:59:24;;;;;;;2.33;1.70;;;17.00;65.90;;;;;;4946861;28;20484;-73
2023/05/18 09:01:53;;;;;;;5.23;2.90;;;17.00;65.80;;;;;;4936455;28;20449;-73
2023/05/18 09:04:23;;;;;;;3.20;2.40;;;17.00;61.70;;;;;;4940352;28;20493;-72
2023/05/18 09:06:55;;;;;;;2.90;2.07;;;17.00;63.60;;;;;;4954317;28;20963;-72
2023/05/18 09:09:25;;;;;;;3.20;2.00;;;17.00;64.60;;;;;;4940340;28;20487;-72
2023/05/18 09:11:56;;;;;;;3.83;2.47;;;17.00;64.70;;;;;;4947531;28;20432;-73
2023/05/18 09:14:25;;;;;;;2.20;1.40;;;17.00;65.00;;;;;;4946529;28;20483;-72
2023/05/18 09:16:54;;;;;;;4.23;2.27;;;17.00;65.00;;;;;;4948014;28;20857;-72
2023/05/18 09:19:23;;;;;;;3.50;2.23;;;17.00;65.10;;;;;;4944795;28;20836;-73
2023/05/18 09:21:53;;;;;;;2.50;1.70;;;17.00;65.30;;;;;;4961795;28;20436;-73
2023/05/18 09:24:22;;;;;;;3.93;2.17;;;17.00;65.30;;;;;;4949571;28;20582;-72
2023/05/18 09:26:52;;;;;;;4.23;2.03;;;16.90;65.30;;;;;;4941126;28;20560;-72
2023/05/18 09:29:22;;;;;;;3.00;1.87;;;16.90;64.90;;;;;;4946575;28;20475;-73
2023/05/18 09:31:52;;;;;;;2.90;1.90;;;16.90;65.20;;;;;;4954142;28;20455;-73
2023/05/18 09:34:23;;;;;;;3.17;1.90;;;16.90;65.70;;;;;;4943426;28;20705;-72
2023/05/18 09:36:55;;;;;;;3.27;1.90;;;16.90;65.30;;;;;;4958688;28;20484;-72
2023/05/18 09:39:24;;;;;;;2.97;1.90;;;16.90;65.50;;;;;;4948343;28;20820;-72
2023/05/18 09:41:56;;;;;;;6.70;3.00;;;16.90;63.90;;;;;;4944771;28;20973;-73
2023/05/18 09:44:31;;;;;;;5.20;2.93;;;16.70;56.00;;;;;;4947350;28;20498;-72
2023/05/18 09:47:00;;;;;;;6.73;3.50;;;16.70;59.60;;;;;;4947521;28;20471;-73
2023/05/18 09:49:30;;;;;;;4.97;2.70;;;16.70;59.90;;;;;;4961425;28;20558;-73
2023/05/18 09:52:00;;;;;;;3.73;2.57;;;16.70;60.70;;;;;;4949590;28;20845;-73
2023/05/18 09:54:29;;;;;;;3.87;2.97;;;16.80;60.80;;;;;;4947795;28;20480;-72
2023/05/18 09:56:58;;;;;;;6.47;3.07;;;16.80;60.80;;;;;;4942342;28;20445;-72
2023/05/18 09:59:38;;;;;;;3.77;2.87;;;16.80;60.80;;;;;;4947338;28;20484;-72
2023/05/18 10:02:07;;;;;;;4.37;2.50;;;16.80;61.80;;;;;;4944964;28;20543;-72
2023/05/18 10:04:38;;;;;;;4.03;2.27;;;16.90;61.60;;;;;;4941027;28;20956;-73
2023/05/18 10:07:12;;;;;;;5.40;2.60;;;16.80;60.90;;;;;;4946246;28;20443;-73
2023/05/18 10:09:41;;;;;;;3.40;2.10;;;16.90;60.90;;;;;;4948410;28;20527;-72
2023/05/18 10:12:14;;;;;;;3.87;2.93;;;16.80;60.90;;;;;;4941431;28;21740;-72
2023/05/18 10:14:45;;;;;;;4.37;2.30;;;16.80;61.60;;;;;;4938187;28;20539;-72
2023/05/18 10:17:14;;;;;;;3.70;2.50;;;16.90;62.60;;;;;;4958655;28;20472;-73
2023/05/18 10:19:45;;;;;;;5.23;2.90;;;16.80;62.70;;;;;;4941940;28;20536;-73
2023/05/18 10:22:18;;;;;;;4.10;2.53;;;16.80;62.40;;;;;;4949645;28;20499;-72
2023/05/18 10:24:51;;;;;;;4.27;2.17;;;16.80;63.00;;;;;;4948107;28;20855;-73
2023/05/18 10:27:24;;;;;;;7.87;2.73;;;16.90;63.20;;;;;;4944610;28;20552;-65
2023/05/18 10:29:53;;;;;;;2.77;1.80;;;16.90;60.40;;;;;;4938611;28;20555;-65
2023/05/18 10:32:25;;;;;;;3.90;2.40;;;16.90;61.60;;;;;;4950369;28;20430;-64
2023/05/18 10:34:55;;;;;;;3.67;2.70;;;16.90;62.20;;;;;;4943629;28;20942;-65
2023/05/18 10:37:29;;;;;;;3.80;2.70;;;16.90;61.90;;;;;;4949339;28;20440;-67
2023/05/18 10:39:59;;;;;;;3.50;2.70;;;16.90;60.90;;;;;;4949517;28;20983;-66
2023/05/18 10:42:30;;;;;;;3.30;2.23;;;16.90;61.20;;;;;;4948975;28;20428;-65
2023/05/18 10:45:00;;;;;;;7.97;2.80;;;16.90;62.00;;;;;;4948340;28;20559;-66
2023/05/18 10:47:29;;;;;;;4.23;2.50;;;16.90;62.50;;;;;;4949199;28;20955;-65
2023/05/18 10:50:00;;;;;;;5.80;2.23;;;16.90;60.90;;;;;;4941585;28;20472;-65
2023/05/18 10:52:37;;;;;;;3.43;2.10;;;16.90;60.90;;;;;;4941415;28;20538;-65
2023/05/18 10:55:08;;;;;;;4.17;2.20;;;16.90;62.30;;;;;;4944660;28;21100;-66
2023/05/18 10:57:40;;;;;;;4.50;2.40;;;16.90;62.90;;;;;;4946019;28;20515;-66
2023/05/18 11:00:10;;;;;;;4.23;2.40;;;16.90;63.10;;;;;;4947836;28;20436;-68
2023/05/18 11:02:41;;;;;;;8.47;2.97;;;16.90;63.30;;;;;;4944292;28;20578;-67
2023/05/18 11:05:11;;;;;;;3.80;2.43;;;16.90;60.90;;;;;;4944034;28;20456;-66
2023/05/18 11:07:45;;;;;;;5.27;2.47;;;17.00;61.00;;;;;;4945325;28;20448;-66
2023/05/18 11:10:14;;;;;;;4.10;2.53;;;16.90;60.90;;;;;;4954270;28;20446;-65
2023/05/18 11:12:43;;;;;;;6.80;2.60;;;16.90;60.90;;;;;;4946304;28;20444;-65
2023/05/18 11:15:11;;;;;;;4.90;2.10;;;16.90;60.90;;;;;;4962153;28;20486;-65
2023/05/18 11:17:40;;;;;;;3.93;2.53;;;16.90;61.40;;;;;;4947206;28;20472;-66
2023/05/18 11:20:13;;;;;;;5.00;2.57;;;17.00;61.00;;;;;;4941701;28;20460;-66
2023/05/18 11:22:51;;;;;;;4.03;2.53;;;17.00;61.00;;;;;;4947358;28;20463;-65
2023/05/18 11:25:45;;;;;;;4.27;2.40;;;17.00;61.00;;;;;;4941715;28;20472;-65
2023/05/18 11:28:13;;;;;;;5.20;2.87;;;17.00;62.90;;;;;;4957022;28;20452;-65
2023/05/18 11:30:50;;;;;;;4.70;2.77;;;17.00;61.80;;;;;;4946826;28;20488;-74
2023/05/18 11:33:24;;;;;;;4.57;2.80;;;17.00;61.00;;;;;;4938732;28;21135;-72
2023/05/18 11:36:10;;;;;;;3.70;2.33;;;17.00;61.00;;;;;;4945562;28;20483;-72
2023/05/18 11:39:03;;;;;;;3.30;2.07;;;17.00;61.00;;;;;;4945253;28;20472;-72
2023/05/18 11:41:34;;;;;;;4.77;2.10;;;17.00;61.00;;;;;;4954768;28;20452;-72
2023/05/18 11:44:16;;;;;;;3.50;2.03;;;17.00;61.00;;;;;;4943006;28;20847;-72
2023/05/18 11:46:53;;;;;;;3.20;2.30;;;17.00;61.50;;;;;;4939329;28;20460;-72
2023/05/18 11:49:23;;;;;;;4.07;2.70;;;17.00;62.70;;;;;;4951232;28;20491;-72
2023/05/18 11:52:04;;;;;;;3.17;2.00;;;17.00;61.80;;;;;;4944013;28;20439;-72
2023/05/18 11:54:40;;;;;;;3.93;2.20;;;17.00;62.40;;;;;;4948389;28;20468;-72
2023/05/18 11:57:10;;;;;;;6.43;2.80;;;17.00;61.60;;;;;;4947674;29;20439;-72
2023/05/18 11:59:40;;;;;;;2.83;2.40;;;17.00;61.00;;;;;;4941519;28;20479;-72
2023/05/18 12:02:11;;;;;;;6.10;2.60;;;17.00;61.00;;;;;;4946393;28;20452;-72
2023/05/18 12:04:45;;;;;;;3.90;2.37;;;17.00;61.00;;;;;;4941659;28;20485;-72
2023/05/18 12:07:14;;;;;;;4.03;2.60;;;17.00;61.00;;;;;;4946448;28;20815;-72
2023/05/18 12:09:47;;;;;;;4.70;2.90;;;17.00;61.00;;;;;;4948813;28;20500;-72
2023/05/18 12:12:18;;;;;;;4.40;3.00;;;17.00;61.00;;;;;;4943910;28;20918;-73
2023/05/18 12:14:55;;;;;;;5.77;2.50;;;17.10;61.00;;;;;;4938181;28;20481;-72
2023/05/18 12:17:24;;;;;;;5.50;2.10;;;17.00;61.40;;;;;;4942516;28;20466;-73
2023/05/18 12:19:52;;;;;;;2.17;1.97;;;17.10;62.10;;;;;;4944319;28;20479;-71
2023/05/18 12:22:25;;;;;;;2.47;2.00;;;17.10;61.80;;;;;;4951560;28;20487;-72
2023/05/18 12:24:56;;;;;;;4.23;2.07;;;17.10;61.10;;;;;;4942716;28;20459;-72
2023/05/18 12:27:26;;;;;;;5.70;2.43;;;17.10;62.70;;;;;;4945391;28;20463;-72
2023/05/18 12:29:54;;;;;;;5.50;2.23;;;17.10;61.00;;;;;;4945523;28;20479;-65
2023/05/18 12:32:23;;;;;;;2.50;2.13;;;17.10;61.10;;;;;;4944307;28;20450;-71
2023/05/18 12:34:52;;;;;;;3.23;2.20;;;17.10;61.80;;;;;;4938855;28;21019;-72
2023/05/18 12:37:24;;;;;;;2.90;2.03;;;17.10;62.20;;;;;;4959666;28;20443;-67
2023/05/18 12:40:08;;;;;;;3.63;2.00;;;17.10;63.20;;;;;;4943068;28;20483;-65
2023/05/18 12:42:37;;;;;;;2.97;2.30;;;17.10;61.40;;;;;;4953330;28;20448;-67
2023/05/18 12:45:07;;;;;;;1.97;1.53;;;17.20;63.50;;;;;;4940949;28;20477;-66
2023/05/18 12:47:41;;;;;;;3.03;1.87;;;17.20;63.30;;;;;;4947895;28;20455;-68
2023/05/18 12:50:11;;;;;;;3.10;2.00;;;17.20;63.60;;;;;;4947895;28;20452;-66
2023/05/18 12:52:40;;;;;;;3.53;2.27;;;17.20;62.60;;;;;;4946800;29;20534;-67
2023/05/18 12:55:20;;;;;;;4.33;2.10;;;17.20;62.60;;;;;;4949884;28;20464;-67
2023/05/18 12:58:00;;;;;;;3.40;2.33;;;17.20;63.00;;;;;;4949499;28;20448;-65
2023/05/18 13:00:32;;;;;;;3.20;2.23;;;17.20;63.10;;;;;;4949749;28;20451;-65
2023/05/18 13:03:08;;;;;;;2.90;2.43;;;17.20;62.90;;;;;;4949377;28;20542;-67
2023/05/18 13:05:43;;;;;;;2.57;2.20;;;17.20;63.40;;;;;;4947830;28;20444;-66